Renderfarm Status:OK
Avg Time Per Frame:12.4 min/frame
Total Users Today:79
Total CPU Time Today:1860.69 Hours
Total Frames Waiting:1176
Today's CPU Champion:kduche20 / 7 days 12 hr
Active Jobs
Job User Frames Renderer Total CPU Average Start End Status
40061 emerca20 1 arnold 0 Hours 0 min 04/26 07:14 PM Ready
40060 afortu20 50 rman 0 Hours 0 min 04/26 06:56 PM Ready
40058 esteel20 100 rman 0 Hours 0 min 04/26 06:52 PM Ready
40057 cmaach20 91 arnold 0 Hours 0 min 04/26 06:47 PM Ready
40056 ewimer20 80 arnold 0 Hours 0 min 04/26 06:41 PM Ready
40055 yuchen24 7 houdini 0 Hours 0 min 04/26 06:29 PM Ready
40054 chzhao21 7 houdini 0 Hours 0 min 04/26 06:02 PM Ready
40053 zaross20 100 houdini 0 Hours 0 min 04/26 05:37 PM Ready
40052 dgrzes20 100 houdini 0 Hours 0 min 04/26 05:32 PM Ready
40051 ivvera20 76 rman 0 Hours 0 min 04/26 05:32 PM Ready
40050 jecruz20 2 rman 0 Hours 0 min 04/26 05:23 PM Ready
40049 jhuang28 8 houdini 0 Hours 0 min 04/26 05:02 PM Ready
40048 jelove20 2 htoa 0 Hours 0 min 04/26 04:45 PM Ready
40047 yichai20 8 houdini 0 Hours 0 min 04/26 04:44 PM Ready
40046 xiaoyu21 8 houdini 0 Hours 0 min 04/26 04:42 PM Ready
40045 lmitte20 100 arnold 0 Hours 0 min 04/26 04:41 PM Ready
40044 jburst20 100 arnold 0 Hours 0 min 04/26 04:32 PM Ready
40043 gmawic20 100 arnold 0 Hours 0 min 04/26 04:26 PM Ready
40042 soubre20 1 houdini 0 Hours 0 min 04/26 04:17 PM Ready
40041 wanlyu20 92 houdini 0 Hours 0 min 04/26 04:15 PM Ready
40040 ssande25 100 arnold 0.16 Hours 2.4 min 04/26 04:10 PM Rendering
40032 tichiu20 100 arnold 30.29 Hours 43.3 min 04/26 03:48 PM Rendering
40020 yawang24 8 houdini 0 Hours 0 min 04/26 03:06 PM Ready
40018 abutte21 100 arnold 0 Hours 0 min 04/26 03:05 PM Rendering
40017 kgille25 45 arnold 15.95 Hours 23.9 min 04/26 03:04 PM Rendering
Completed Jobs
Job User Frames Renderer Total CPU Average Start End Speedup Status
40059 anikkh20 30 houdini 0 Hours 0 min 04/26 06:53 PM 04/26 06:57 PM 0x Complete!
40039 ntaylo27 30 arnold 0.8 Hours 1.6 min 04/26 04:06 PM 04/26 07:19 PM 0.2x Complete!
40038 jburst20 100 arnold 0 Hours 0 min 04/26 04:02 PM 04/26 04:32 PM 0x Complete!
40037 yhuang37 5 arnold 0.06 Hours 0.7 min 04/26 03:57 PM 04/26 07:06 PM 0x Complete!
40036 gmawic20 100 arnold 0 Hours 0 min 04/26 03:57 PM 04/26 04:11 PM 0x Complete!
40035 yourlu20 6 arnold 0.21 Hours 2.1 min 04/26 03:55 PM 04/26 07:06 PM 0.1x Complete!
40034 jrutle20 6 arnold 0.1 Hours 1 min 04/26 03:55 PM 04/26 06:51 PM 0x Complete!
40033 mgibso23 5 arnold 0 Hours 0 min 04/26 03:55 PM 04/26 03:57 PM 0x Complete!
40031 djones52 1 arnold 0 Hours 0 min 04/26 03:45 PM 04/26 04:03 PM 0x Complete!
40030 djones52 11 arnold 0 Hours 0 min 04/26 03:43 PM 04/26 03:45 PM 0x Complete!
40029 dmaach20 42 arnold 6.51 Hours 9.3 min 04/26 03:41 PM 04/26 05:54 PM 2.9x Complete!
40028 dmaach20 42 arnold 0 Hours 0 min 04/26 03:40 PM 04/26 03:41 PM 0x Complete!
40027 kbenne24 21 arnold 0.17 Hours 0.5 min 04/26 03:27 PM 04/26 05:24 PM 0.1x Complete!
40026 yushao21 20 arnold 1.15 Hours 3.4 min 04/26 03:25 PM 04/26 05:25 PM 0.6x Complete!
40025 lhudso21 1 arnold 0 Hours 0.1 min 04/26 03:12 PM 04/26 05:15 PM 0x Complete!
40024 souell20 41 houdini 12.06 Hours 17.6 min 04/26 03:11 PM 04/26 05:55 PM 4.4x Complete!
40023 jecruz20 28 rman 6.73 Hours 14.4 min 04/26 03:10 PM 04/26 05:19 PM 3.1x Complete!
40022 ssande25 100 arnold 0 Hours 0 min 04/26 03:08 PM 04/26 04:03 PM 0x Complete!
40021 dgrzes20 100 houdini 8.21 Hours 4.9 min 04/26 03:08 PM 04/26 04:42 PM 5.2x Complete!
40019 cpierc20 1 arnold 0 Hours 0.1 min 04/26 03:06 PM 04/26 03:59 PM 0x Complete!
40016 tiafan20 1 arnold 0.02 Hours 1.4 min 04/26 03:03 PM 04/26 04:00 PM 0x Complete!
40015 cbrook29 1 arnold 0 Hours 0.2 min 04/26 03:03 PM 04/26 03:59 PM 0x Complete!
40014 jburst20 100 arnold 2.75 Hours 2.7 min 04/26 03:03 PM 04/26 03:58 PM 3x Complete!
40013 jecruz20 2 rman 0 Hours 0 min 04/26 03:02 PM 04/26 03:09 PM 0x Complete!
40012 acabon20 1 arnold 0 Hours 0.2 min 04/26 03:02 PM 04/26 03:44 PM 0x Complete!
40011 yhuang37 1 arnold 0 Hours 0.1 min 04/26 03:01 PM 04/26 03:43 PM 0x Complete!
40010 jduboi21 1 arnold 0 Hours 0.2 min 04/26 03:00 PM 04/26 03:43 PM 0x Complete!
40009 dtrevo20 1 arnold 0 Hours 0.2 min 04/26 02:59 PM 04/26 03:43 PM 0x Complete!
40008 acillo20 1 arnold 0 Hours 0.2 min 04/26 02:59 PM 04/26 03:43 PM 0x Complete!
40007 dbrink20 1 arnold 0 Hours 0.2 min 04/26 02:58 PM 04/26 03:43 PM 0x Complete!
40006 gmawic20 100 arnold 6.34 Hours 3.8 min 04/26 02:58 PM 04/26 03:46 PM 7.8x Complete!
40005 vkageh20 1 arnold 0 Hours 0.2 min 04/26 02:57 PM 04/26 03:22 PM 0x Complete!
40004 jrutle20 1 arnold 0 Hours 0.1 min 04/26 02:56 PM 04/26 03:22 PM 0x Complete!
40003 sdutta20 1 arnold 0 Hours 0.2 min 04/26 02:56 PM 04/26 03:22 PM 0x Complete!
40002 nperez23 1 arnold 0 Hours 0.2 min 04/26 02:56 PM 04/26 03:22 PM 0x Complete!
40001 jsmith90 1 arnold 0 Hours 0.2 min 04/26 02:55 PM 04/26 03:22 PM 0x Complete!
40000 beiler20 1 arnold 0 Hours 0.3 min 04/26 02:55 PM 04/26 03:22 PM 0x Complete!
39999 yourlu20 1 arnold 0.06 Hours 3.4 min 04/26 02:55 PM 04/26 03:25 PM 0.1x Complete!
39998 mgibso23 1 arnold 0 Hours 0.3 min 04/26 02:54 PM 04/26 03:21 PM 0x Complete!
39997 eoneal20 1 arnold 0 Hours 0.2 min 04/26 02:53 PM 04/26 03:21 PM 0x Complete!
39996 yushao21 100 arnold 5.72 Hours 3.4 min 04/26 02:52 PM 04/26 03:24 PM 10.6x Complete!
39995 cmaach20 11 arnold 1.12 Hours 6.1 min 04/26 02:51 PM 04/26 04:54 PM 0.5x Complete!
39994 weinhu20 60 arnold 8.3 Hours 8.3 min 04/26 02:51 PM 04/26 05:53 PM 2.7x Complete!
39993 chulee22 100 arnold 0 Hours 0 min 04/26 02:47 PM 04/26 06:46 PM 0x Complete!
39992 dgrzes20 100 houdini 3.77 Hours 2.3 min 04/26 02:42 PM 04/26 02:53 PM 19.7x Complete!
39991 gmawic20 100 arnold 0 Hours 0 min 04/26 02:41 PM 04/26 02:43 PM 0x Complete!
39990 bgaynor 1 arnold 0 Hours 0.2 min 04/26 02:40 PM 04/26 02:40 PM 0.5x Complete!
39989 dgrzes20 9 houdini 0.39 Hours 2.6 min 04/26 02:37 PM 04/26 02:42 PM 5.3x Complete!
39988 zihtai20 70 arnold 1.26 Hours 1.1 min 04/26 02:36 PM 04/26 02:39 PM 22.3x Complete!
39987 kmatus20 100 arnold 84.85 Hours 50.9 min 04/26 02:36 PM 04/26 04:48 PM 38.5x Complete!
Copyright 2014 Savannah College of Art and Design